createdAt,value
2023-05-12T00:01:14.960Z,99659.84
2023-05-12T00:03:42.779Z,99662.38
2023-05-12T00:06:10.453Z,99658.13
2023-05-12T00:08:38.282Z,99654.56
2023-05-12T00:11:07.365Z,99658.00
2023-05-12T00:13:35.125Z,99659.72
2023-05-12T00:16:03.648Z,99661.38
2023-05-12T00:18:31.313Z,99663.97
2023-05-12T00:20:58.943Z,99651.06
2023-05-12T00:23:26.484Z,99658.81
2023-05-12T00:25:54.067Z,99651.06
2023-05-12T00:28:22.931Z,99651.91
2023-05-12T00:30:50.525Z,99651.06
2023-05-12T00:33:18.131Z,99644.16
2023-05-12T00:35:46.179Z,99651.97
2023-05-12T00:38:13.959Z,99654.53
2023-05-12T00:40:41.936Z,99651.97
2023-05-12T00:43:09.491Z,99646.78
2023-05-12T00:45:38.875Z,99650.25
2023-05-12T00:48:07.784Z,99647.66
2023-05-12T00:50:35.877Z,99644.22
2023-05-12T00:53:03.508Z,99642.47
2023-05-12T00:55:31.274Z,99639.00
2023-05-12T00:57:59.895Z,99643.34
2023-05-12T01:00:28.956Z,99645.06
2023-05-12T01:02:58.721Z,99640.72
2023-05-12T01:05:33.259Z,99642.44
2023-05-12T01:08:01.535Z,99640.66
2023-05-12T01:10:29.240Z,99642.38
2023-05-12T01:12:57.381Z,99633.78
2023-05-12T01:15:27.475Z,99639.81
2023-05-12T01:18:02.405Z,99642.34
2023-05-12T01:20:32.818Z,99633.78
2023-05-12T01:23:04.072Z,99630.28
2023-05-12T01:25:33.908Z,99628.59
2023-05-12T01:28:05.635Z,99633.69
2023-05-12T01:30:33.650Z,99631.09
2023-05-12T01:33:02.551Z,99631.13
2023-05-12T01:35:30.353Z,99634.59
2023-05-12T01:38:00.685Z,99633.69
2023-05-12T01:40:28.647Z,99638.91
2023-05-12T01:42:57.620Z,99639.72
2023-05-12T01:45:28.364Z,99640.56
2023-05-12T01:47:55.996Z,99644.06
2023-05-12T01:50:23.596Z,99649.28
2023-05-12T02:01:58.885Z,99638.03
2023-05-12T02:04:32.514Z,99644.91
2023-05-12T02:07:01.724Z,99640.66
2023-05-12T02:09:29.778Z,99640.66
2023-05-12T02:12:02.298Z,99632.91
2023-05-12T02:14:30.097Z,99636.34
2023-05-12T02:16:59.477Z,99644.13
2023-05-12T02:19:27.050Z,99644.97
2023-05-12T02:21:57.563Z,99644.09
2023-05-12T02:24:25.227Z,99636.31
2023-05-12T02:26:53.318Z,99636.31
2023-05-12T02:29:21.034Z,99637.16
2023-05-12T02:31:49.492Z,99634.53
2023-05-12T02:34:18.028Z,99631.03
2023-05-12T02:36:45.608Z,99635.31
2023-05-12T02:39:14.522Z,99646.53
2023-05-12T02:41:42.314Z,99630.13
2023-05-12T02:44:09.829Z,99631.84
2023-05-12T02:46:37.914Z,99630.13
2023-05-12T02:49:05.514Z,99628.41
2023-05-12T02:51:33.075Z,99627.53
2023-05-12T02:54:01.293Z,99631.84
2023-05-12T02:56:33.890Z,99635.25
2023-05-12T02:59:01.832Z,99624.88
2023-05-12T03:01:29.356Z,99630.03
2023-05-12T03:03:56.941Z,99631.81
2023-05-12T03:06:24.714Z,99638.75
2023-05-12T03:08:52.338Z,99640.47
2023-05-12T03:11:19.850Z,99635.31
2023-05-12T03:13:49.245Z,99637.00
2023-05-12T03:16:19.612Z,99636.97
2023-05-12T03:18:49.102Z,99636.09
2023-05-12T03:21:16.853Z,99636.91
2023-05-12T03:23:44.376Z,99636.03
2023-05-12T03:26:12.111Z,99641.16
2023-05-12T03:28:39.912Z,99644.59
2023-05-12T03:31:08.947Z,99633.38
2023-05-12T03:33:36.608Z,99641.97
2023-05-12T03:36:05.743Z,99637.66
2023-05-12T03:38:33.625Z,99632.53
2023-05-12T03:41:05.152Z,99631.63
2023-05-12T03:43:33.534Z,99631.63
2023-05-12T03:46:01.799Z,99635.00
2023-05-12T03:48:30.861Z,99634.94
2023-05-12T03:50:58.466Z,99636.63
2023-05-12T03:53:26.073Z,99636.59
2023-05-12T03:55:53.679Z,99636.56
2023-05-12T03:58:21.233Z,99635.72
2023-05-12T04:00:50.103Z,99628.81
2023-05-12T04:03:17.931Z,99634.00
2023-05-12T04:05:47.017Z,99634.88
2023-05-12T04:08:15.873Z,99633.13
2023-05-12T04:10:43.445Z,99636.59
2023-05-12T04:13:10.958Z,99638.38
2023-05-12T04:15:38.480Z,99643.56
2023-05-12T04:18:06.553Z,99650.44
2023-05-12T04:20:34.077Z,99646.16
2023-05-12T04:23:03.510Z,99640.19
2023-05-12T04:25:31.166Z,99647.06
2023-05-12T04:27:58.886Z,99646.25
2023-05-12T04:30:26.508Z,99641.97
2023-05-12T04:32:54.346Z,99645.44
2023-05-12T04:35:22.644Z,99638.56
2023-05-12T04:37:50.448Z,99645.47
2023-05-12T04:40:19.860Z,99645.47
2023-05-12T04:42:47.781Z,99636.91
2023-05-12T04:45:16.451Z,99639.44
2023-05-12T04:47:44.208Z,99642.88
2023-05-12T04:50:12.579Z,99640.28
2023-05-12T04:52:40.436Z,99643.69
2023-05-12T04:55:08.963Z,99653.16
2023-05-12T04:57:40.870Z,99652.28
2023-05-12T05:00:12.060Z,99649.72
2023-05-12T05:02:40.200Z,99660.94
2023-05-12T05:05:08.775Z,99658.44
2023-05-12T05:07:36.656Z,99661.88
2023-05-12T05:10:04.762Z,99661.03
2023-05-12T05:12:32.926Z,99663.72
2023-05-12T05:15:02.103Z,99656.03
2023-05-12T05:17:29.952Z,99662.03
2023-05-12T05:19:59.669Z,99665.53
2023-05-12T05:22:30.673Z,99671.56
2023-05-12T05:24:58.564Z,99669.94
2023-05-12T05:27:26.553Z,99669.13
2023-05-12T05:29:54.486Z,99662.25
2023-05-12T05:32:23.398Z,99669.97
2023-05-12T05:34:51.022Z,99669.13
2023-05-12T05:37:19.952Z,99664.03
2023-05-12T05:39:47.546Z,99677.88
2023-05-12T05:42:15.756Z,99665.84
2023-05-12T05:44:46.131Z,99678.81
2023-05-12T05:47:14.776Z,99671.94
2023-05-12T05:49:44.143Z,99678.84
2023-05-12T05:52:11.898Z,99670.19
2023-05-12T05:54:39.554Z,99676.22
2023-05-12T05:57:07.464Z,99675.41
2023-05-12T05:59:35.288Z,99682.34
2023-05-12T06:02:03.727Z,99689.31
2023-05-12T06:04:31.484Z,99684.25
2023-05-12T06:07:00.404Z,99686.06
2023-05-12T06:09:28.392Z,99691.34
2023-05-12T06:11:55.945Z,99691.41
2023-05-12T06:14:23.472Z,99689.69
2023-05-12T06:16:51.046Z,99692.34
2023-05-12T06:19:18.630Z,99686.28
2023-05-12T06:21:46.164Z,99692.41
2023-05-12T06:24:15.363Z,99698.56
2023-05-12T06:26:43.501Z,99691.81
2023-05-12T06:29:11.174Z,99692.72
2023-05-12T06:31:38.816Z,99705.75
2023-05-12T06:34:06.454Z,99697.97
2023-05-12T06:36:34.521Z,99704.03
2023-05-12T06:39:02.102Z,99704.88
2023-05-12T06:41:31.400Z,99706.63
2023-05-12T06:44:01.452Z,99705.78
2023-05-12T06:46:29.160Z,99707.53
2023-05-12T06:48:56.692Z,99709.28
2023-05-12T06:51:24.464Z,99711.00
2023-05-12T06:53:52.354Z,99716.19
2023-05-12T06:56:19.921Z,99701.53
2023-05-12T06:58:49.223Z,99707.56
2023-05-12T07:01:17.041Z,99712.75
2023-05-12T07:03:44.901Z,99706.69
2023-05-12T07:06:12.509Z,99707.53
2023-05-12T07:08:40.760Z,99707.56
2023-05-12T07:11:08.301Z,99713.59
2023-05-12T07:13:35.910Z,99715.31
2023-05-12T07:16:05.368Z,99703.19
2023-05-12T07:18:32.925Z,99716.19
2023-05-12T07:21:00.940Z,99712.69
2023-05-12T07:23:28.488Z,99712.72
2023-05-12T07:25:56.051Z,99717.03
2023-05-12T07:28:23.720Z,99709.22
2023-05-12T07:33:20.304Z,99713.56
2023-05-12T07:35:48.134Z,99710.09
2023-05-12T07:38:16.012Z,99708.34
2023-05-12T07:40:44.588Z,99716.13
2023-05-12T07:43:12.200Z,99707.41
2023-05-12T07:45:39.744Z,99710.84
2023-05-12T07:48:07.560Z,99710.84
2023-05-12T07:50:36.492Z,99714.25
2023-05-12T07:53:04.305Z,99710.81
2023-05-12T07:55:33.314Z,99710.81
2023-05-12T07:58:01.274Z,99709.94
2023-05-12T08:00:29.082Z,99711.69
2023-05-12T08:02:57.108Z,99699.50
2023-05-12T08:05:24.826Z,99708.09
2023-05-12T08:07:53.729Z,99704.69
2023-05-12T08:10:21.282Z,99702.88
2023-05-12T08:12:48.816Z,99708.09
2023-05-12T08:15:16.347Z,99708.88
2023-05-12T08:17:43.916Z,99701.88
2023-05-12T08:20:12.481Z,99702.72
2023-05-12T08:22:40.093Z,99707.03
2023-05-12T08:25:12.296Z,99707.13
2023-05-12T08:27:40.296Z,99705.34
2023-05-12T08:30:08.591Z,99712.22
2023-05-12T08:32:36.413Z,99706.06
2023-05-12T08:35:04.192Z,99708.78
2023-05-12T08:37:34.583Z,99708.78
2023-05-12T08:40:04.012Z,99708.69
2023-05-12T08:42:38.528Z,99712.22
2023-05-12T08:45:08.651Z,99713.03
2023-05-12T08:47:38.406Z,99721.72
2023-05-12T08:50:06.979Z,99715.72
2023-05-12T08:52:36.090Z,99719.31
2023-05-12T08:55:05.154Z,99722.88
2023-05-12T08:57:34.529Z,99723.75
2023-05-12T09:00:04.717Z,99726.41
2023-05-12T09:02:41.315Z,99724.72
2023-05-12T09:05:19.833Z,99718.59
2023-05-12T09:07:50.624Z,99729.00
2023-05-12T09:10:33.668Z,99725.50
2023-05-12T09:13:10.051Z,99727.25
2023-05-12T09:15:42.234Z,99725.50
2023-05-12T09:18:09.830Z,99726.41
2023-05-12T09:20:37.754Z,99729.00
2023-05-12T09:23:16.079Z,99726.47
2023-05-12T09:25:43.816Z,99721.22
2023-05-12T09:28:12.761Z,99729.94
2023-05-12T09:30:42.227Z,99726.47
2023-05-12T09:33:11.029Z,99732.56
2023-05-12T09:35:40.073Z,99726.50
2023-05-12T09:38:08.610Z,99728.25
2023-05-12T09:40:36.330Z,99729.16
2023-05-12T09:43:04.233Z,99726.56
2023-05-12T09:45:36.880Z,99725.72
2023-05-12T09:48:11.075Z,99730.03
2023-05-12T09:50:47.618Z,99725.69
2023-05-12T09:53:17.273Z,99728.31
2023-05-12T09:55:45.515Z,99719.63
2023-05-12T09:58:16.406Z,99729.16
2023-05-12T10:03:21.687Z,99728.22
2023-05-12T10:05:51.513Z,99733.41
2023-05-12T10:08:22.309Z,99732.50
2023-05-12T10:10:52.231Z,99731.56
2023-05-12T10:13:20.616Z,99726.28
2023-05-12T10:15:50.779Z,99724.50
2023-05-12T10:18:18.472Z,99731.28
2023-05-12T10:20:46.933Z,99728.56
2023-05-12T10:23:16.202Z,99727.50
2023-05-12T10:25:45.135Z,99727.44
2023-05-12T10:28:12.845Z,99728.19
2023-05-12T10:30:41.934Z,99731.44
2023-05-12T10:33:11.529Z,99735.81
2023-05-12T10:35:40.827Z,99722.59
2023-05-12T10:38:09.676Z,99722.69
2023-05-12T10:40:37.272Z,99723.53
2023-05-12T10:43:05.136Z,99717.56
2023-05-12T10:45:37.578Z,99722.69
2023-05-12T10:48:09.149Z,99716.53
2023-05-12T10:50:38.335Z,99721.91
2023-05-12T10:53:06.015Z,99714.84
2023-05-12T10:55:35.730Z,99713.88
2023-05-12T10:58:10.510Z,99713.19
2023-05-12T11:00:50.670Z,99715.06
2023-05-12T11:03:25.587Z,99715.88
2023-05-12T11:06:02.890Z,99708.94
2023-05-12T11:08:32.431Z,99713.19
2023-05-12T11:11:00.313Z,99710.56
2023-05-12T11:13:29.325Z,99714.84
2023-05-12T11:15:58.089Z,99720.09
2023-05-12T11:18:25.667Z,99711.03
2023-05-12T11:20:53.284Z,99720.47
2023-05-12T11:23:29.760Z,99722.88
2023-05-12T11:25:57.561Z,99718.31
2023-05-12T11:28:26.191Z,99729.66
2023-05-12T11:30:55.546Z,99728.13
2023-05-12T11:33:24.350Z,99725.44
2023-05-12T11:35:52.121Z,99734.06
2023-05-12T11:38:24.272Z,99731.59
2023-05-12T11:40:53.274Z,99721.31
2023-05-12T11:43:21.902Z,99727.34
2023-05-12T11:45:49.511Z,99727.28
2023-05-12T11:48:17.077Z,99723.94
2023-05-12T11:50:47.716Z,99725.69
2023-05-12T11:53:17.172Z,99721.44
2023-05-12T11:55:51.885Z,99730.00
2023-05-12T11:58:22.793Z,99725.91
2023-05-12T12:00:50.542Z,99727.00
2023-05-12T12:03:18.484Z,99721.09
2023-05-12T12:05:59.777Z,99723.47
2023-05-12T12:08:27.533Z,99720.13
2023-05-12T12:10:55.383Z,99723.91
2023-05-12T12:13:25.531Z,99722.75
2023-05-12T12:15:53.767Z,99729.59
2023-05-12T12:18:21.530Z,99731.63
2023-05-12T12:20:49.293Z,99730.19
2023-05-12T12:23:17.012Z,99732.97
2023-05-12T12:25:44.672Z,99729.19
2023-05-12T12:28:12.883Z,99729.44
2023-05-12T12:30:41.922Z,99727.63
2023-05-12T12:33:09.578Z,99729.16
2023-05-12T12:35:37.096Z,99739.09
2023-05-12T12:38:04.678Z,99738.88
2023-05-12T12:40:32.409Z,99739.03
2023-05-12T12:42:59.909Z,99737.38
2023-05-12T12:45:27.529Z,99730.84
2023-05-12T12:47:56.529Z,99742.03
2023-05-12T12:50:25.236Z,99733.97
2023-05-12T12:52:54.995Z,99734.72
2023-05-12T12:55:22.877Z,99739.75
2023-05-12T12:57:50.738Z,99736.41
2023-05-12T13:00:19.391Z,99745.69
2023-05-12T13:02:47.113Z,99741.50
2023-05-12T13:05:16.346Z,99747.00
2023-05-12T13:07:44.021Z,99753.88
2023-05-12T13:10:13.126Z,99751.44
2023-05-12T13:12:41.000Z,99745.44
2023-05-12T13:15:10.326Z,99742.03
2023-05-12T13:17:38.006Z,99737.84
2023-05-12T13:20:06.751Z,99741.09
2023-05-12T13:22:35.854Z,99749.66
2023-05-12T13:25:05.935Z,99741.00
2023-05-12T13:27:34.111Z,99739.22
2023-05-12T13:30:03.832Z,99736.91
2023-05-12T13:32:31.601Z,99737.75
2023-05-12T13:34:59.542Z,99728.25
2023-05-12T13:37:27.270Z,99736.63
2023-05-12T13:39:56.276Z,99740.41
2023-05-12T13:42:23.862Z,99743.63
2023-05-12T13:44:51.447Z,99736.38
2023-05-12T13:47:19.373Z,99741.78
2023-05-12T13:49:46.890Z,99736.09
2023-05-12T13:52:14.852Z,99733.75
2023-05-12T13:54:42.412Z,99732.13
2023-05-12T13:57:11.363Z,99728.63
2023-05-12T13:59:38.948Z,99731.47
2023-05-12T14:02:09.590Z,99727.31
2023-05-12T14:04:37.424Z,99728.94
2023-05-12T14:07:08.321Z,99728.22
2023-05-12T14:09:36.442Z,99734.50
2023-05-12T14:12:04.292Z,99726.88
2023-05-12T14:14:33.287Z,99730.47
2023-05-12T14:17:00.799Z,99732.94
2023-05-12T14:19:28.524Z,99739.88
2023-05-12T14:21:56.051Z,99733.00
2023-05-12T14:24:23.596Z,99741.53
2023-05-12T14:26:51.135Z,99734.69
2023-05-12T14:29:18.793Z,99750.28
2023-05-12T14:31:47.787Z,99745.97
2023-05-12T14:34:15.335Z,99742.41
2023-05-12T14:36:42.897Z,99749.44
2023-05-12T14:39:10.478Z,99745.16
2023-05-12T14:41:38.028Z,99746.53
2023-05-12T14:44:05.957Z,99742.38
2023-05-12T14:46:33.576Z,99743.09
2023-05-12T14:49:03.272Z,99744.25
2023-05-12T14:51:30.896Z,99751.66
2023-05-12T14:53:58.410Z,99745.63
2023-05-12T14:56:26.207Z,99750.72
2023-05-12T14:58:53.741Z,99757.94
2023-05-12T15:01:21.480Z,99745.78
2023-05-12T15:03:49.553Z,99757.19
2023-05-12T15:06:18.508Z,99753.13
2023-05-12T15:08:46.117Z,99751.50
2023-05-12T15:11:13.677Z,99756.88
2023-05-12T15:13:41.239Z,99753.00
2023-05-12T15:16:09.115Z,99756.94
2023-05-12T15:18:36.829Z,99754.16
2023-05-12T15:21:04.918Z,99751.97
2023-05-12T15:23:33.958Z,99753.34
2023-05-12T15:26:15.549Z,99760.13
2023-05-12T15:28:48.560Z,99756.56
2023-05-12T15:31:16.149Z,99758.28
2023-05-12T15:33:43.739Z,99759.47
2023-05-12T15:36:11.936Z,99754.25
2023-05-12T15:38:42.286Z,99755.16
2023-05-12T15:41:09.830Z,99761.28
2023-05-12T15:43:38.891Z,99763.25
2023-05-12T15:46:06.567Z,99753.03
2023-05-12T15:48:34.165Z,99751.56
2023-05-12T15:51:03.794Z,99754.91
2023-05-12T15:53:31.452Z,99756.69
2023-05-12T15:56:03.778Z,99752.09
2023-05-12T15:58:31.673Z,99767.44
2023-05-12T16:00:59.577Z,99760.28
2023-05-12T16:03:27.465Z,99763.31
2023-05-12T16:05:55.158Z,99758.97
2023-05-12T16:08:23.926Z,99764.09
2023-05-12T16:10:51.522Z,99758.50
2023-05-12T16:13:20.492Z,99756.03
2023-05-12T16:15:50.565Z,99751.88
2023-05-12T16:18:18.705Z,99751.16
2023-05-12T16:20:47.367Z,99756.56
2023-05-12T16:23:14.977Z,99753.44
2023-05-12T16:25:42.896Z,99750.91
2023-05-12T16:28:10.499Z,99747.75
2023-05-12T16:30:39.383Z,99755.75
2023-05-12T16:33:07.738Z,99757.44
2023-05-12T16:35:35.585Z,99751.66
2023-05-12T16:38:03.203Z,99747.44
2023-05-12T16:40:30.871Z,99750.91
2023-05-12T16:42:58.391Z,99752.44
2023-05-12T16:45:25.933Z,99751.97
2023-05-12T16:47:54.879Z,99748.56
2023-05-12T16:50:22.422Z,99757.84
2023-05-12T16:52:50.069Z,99761.41
2023-05-12T16:55:17.658Z,99760.38
2023-05-12T16:57:45.286Z,99756.63
2023-05-12T17:00:14.429Z,99764.56
2023-05-12T17:02:42.098Z,99758.69
2023-05-12T17:05:11.174Z,99757.63
2023-05-12T17:07:38.736Z,99765.88
2023-05-12T17:10:07.434Z,99772.06
2023-05-12T17:12:34.984Z,99773.91
2023-05-12T17:15:07.661Z,99770.13
2023-05-12T17:17:36.448Z,99778.13
2023-05-12T17:20:05.900Z,99774.34
2023-05-12T17:22:37.198Z,99776.72
2023-05-12T17:25:05.528Z,99778.78
2023-05-12T17:27:33.149Z,99774.66
2023-05-12T17:30:00.799Z,99777.00
2023-05-12T17:32:28.393Z,99775.41
2023-05-12T17:34:57.475Z,99783.16
2023-05-12T17:37:25.380Z,99782.06
2023-05-12T17:39:54.975Z,99781.81
2023-05-12T17:42:23.158Z,99785.63
2023-05-12T17:44:50.662Z,99787.84
2023-05-12T17:47:18.234Z,99787.19
2023-05-12T17:49:46.204Z,99786.72
2023-05-12T17:52:13.766Z,99788.94
2023-05-12T17:54:41.504Z,99793.53
2023-05-12T17:57:10.527Z,99796.34
2023-05-12T17:59:38.210Z,99798.28
2023-05-12T18:02:06.223Z,99789.72
2023-05-12T18:04:34.738Z,99798.53
2023-05-12T18:07:02.288Z,99803.75
2023-05-12T18:09:30.278Z,99798.59
2023-05-12T18:11:57.830Z,99800.47
2023-05-12T18:14:27.474Z,99802.34
2023-05-12T18:16:55.047Z,99804.09
2023-05-12T18:19:22.898Z,99805.09
2023-05-12T18:21:51.808Z,99809.50
2023-05-12T18:24:19.417Z,99811.28
2023-05-12T18:26:47.072Z,99807.00
2023-05-12T18:29:14.634Z,99807.88
2023-05-12T18:31:44.124Z,99807.03
2023-05-12T18:34:11.789Z,99810.53
2023-05-12T18:36:39.319Z,99813.13
2023-05-12T18:39:08.477Z,99807.94
2023-05-12T18:41:36.041Z,99809.66
2023-05-12T18:44:03.566Z,99820.03
2023-05-12T18:46:31.479Z,99826.09
2023-05-12T18:49:00.440Z,99826.94
2023-05-12T18:51:29.357Z,99828.69
2023-05-12T18:53:59.936Z,99828.66
2023-05-12T18:56:27.453Z,99828.63
2023-05-12T18:58:54.976Z,99827.72
2023-05-12T19:01:23.441Z,99843.28
2023-05-12T19:03:52.521Z,99842.38
2023-05-12T19:06:21.475Z,99843.22
2023-05-12T19:08:49.012Z,99846.69
2023-05-12T19:11:17.401Z,99846.66
2023-05-12T19:13:45.275Z,99847.53
2023-05-12T19:16:13.067Z,99852.69
2023-05-12T19:18:40.885Z,99856.16
2023-05-12T19:21:08.698Z,99855.28
2023-05-12T19:23:37.625Z,99868.22
2023-05-12T19:26:07.002Z,99868.22
2023-05-12T19:28:34.589Z,99864.78
2023-05-12T19:31:02.186Z,99882.06
2023-05-12T19:33:29.913Z,99875.97
2023-05-12T19:35:57.752Z,99871.63
2023-05-12T19:38:25.306Z,99873.31
2023-05-12T19:40:55.612Z,99869.88
2023-05-12T19:43:23.201Z,99881.03
2023-05-12T19:45:50.912Z,99883.63
2023-05-12T19:48:18.482Z,99884.47
2023-05-12T19:50:46.842Z,99899.06
2023-05-12T19:53:14.400Z,99887.81
2023-05-12T19:55:41.939Z,99895.56
2023-05-12T19:58:10.820Z,99899.78
2023-05-12T20:00:39.389Z,99899.72
2023-05-12T20:03:07.320Z,99893.66
2023-05-12T20:05:36.461Z,99905.72
2023-05-12T20:08:04.136Z,99910.88
2023-05-12T20:10:31.793Z,99907.44
2023-05-12T20:12:59.565Z,99908.25
2023-05-12T20:15:28.507Z,99919.47
2023-05-12T20:17:56.146Z,99925.47
2023-05-12T20:20:24.055Z,99921.97
2023-05-12T20:22:51.600Z,99919.31
2023-05-12T20:25:19.706Z,99927.91
2023-05-12T20:27:47.993Z,99922.69
2023-05-12T20:30:16.019Z,99920.03
2023-05-12T20:32:48.637Z,99921.72
2023-05-12T20:35:16.712Z,99920.81
2023-05-12T20:37:44.808Z,99933.69
2023-05-12T20:40:13.083Z,99928.50
2023-05-12T20:42:40.624Z,99931.03
2023-05-12T20:45:09.161Z,99927.63
2023-05-12T20:47:37.339Z,99927.63
2023-05-12T20:50:07.502Z,99930.13
2023-05-12T20:52:37.705Z,99924.94
2023-05-12T20:55:06.771Z,99931.84
2023-05-12T20:57:34.616Z,99929.22
2023-05-12T21:00:02.357Z,99935.25
2023-05-12T21:02:29.972Z,99937.75
2023-05-12T21:04:57.615Z,99931.66
2023-05-12T21:07:26.501Z,99933.38
2023-05-12T21:09:54.074Z,99930.75
2023-05-12T21:12:21.676Z,99932.41
2023-05-12T21:14:49.480Z,99934.06
2023-05-12T21:17:17.274Z,99933.13
2023-05-12T21:19:45.292Z,99937.34
2023-05-12T21:22:12.887Z,99936.38
2023-05-12T21:24:42.874Z,99935.41
2023-05-12T21:27:11.481Z,99937.06
2023-05-12T21:29:39.078Z,99943.88
2023-05-12T21:32:07.278Z,99940.31
2023-05-12T21:34:35.905Z,99948.91
2023-05-12T21:37:03.577Z,99951.47
2023-05-12T21:39:31.089Z,99947.97
2023-05-12T21:42:00.118Z,99941.13
2023-05-12T21:44:27.629Z,99954.94
2023-05-12T21:46:55.216Z,99952.41
2023-05-12T21:49:22.735Z,99957.59
2023-05-12T21:51:50.314Z,99950.84
2023-05-12T21:54:18.165Z,99957.78
2023-05-12T21:56:45.978Z,99954.38
2023-05-12T21:59:14.831Z,99951.00
2023-05-12T22:01:42.439Z,99960.50
2023-05-12T22:04:10.102Z,99964.00
2023-05-12T22:06:37.773Z,99964.84
2023-05-12T22:09:05.633Z,99964.81
2023-05-12T22:11:33.348Z,99964.72
2023-05-12T22:14:00.911Z,99974.19
2023-05-12T22:16:40.794Z,99964.69
2023-05-12T22:19:09.790Z,99975.91
2023-05-12T22:21:37.584Z,99975.91
2023-05-12T22:24:05.599Z,99970.78
2023-05-12T22:26:33.130Z,99968.25
2023-05-12T22:29:01.154Z,99962.28
2023-05-12T22:31:30.099Z,99965.78
2023-05-12T22:33:57.638Z,99970.13
2023-05-12T22:36:25.181Z,99962.44
2023-05-12T22:38:52.704Z,99962.50
2023-05-12T22:41:20.233Z,99966.00
2023-05-12T22:43:47.788Z,99965.16
2023-05-12T22:46:15.450Z,99965.16
2023-05-12T22:48:44.334Z,99966.06
2023-05-12T22:51:11.892Z,99963.50
2023-05-12T22:53:41.323Z,99971.31
2023-05-12T22:56:09.199Z,99971.31
2023-05-12T22:58:36.747Z,99968.75
2023-05-12T23:01:04.782Z,99962.69
2023-05-12T23:03:33.308Z,99967.81
2023-05-12T23:06:02.231Z,99963.47
2023-05-12T23:08:29.797Z,99965.13
2023-05-12T23:10:57.320Z,99976.34
2023-05-12T23:13:24.911Z,99959.06
2023-05-12T23:15:52.423Z,99954.72
2023-05-12T23:18:20.550Z,99952.94
2023-05-12T23:20:48.108Z,99948.56
2023-05-12T23:23:16.980Z,99956.28
2023-05-12T23:25:45.147Z,99959.63
2023-05-12T23:28:12.930Z,99956.06
2023-05-12T23:30:40.514Z,99958.59
2023-05-12T23:33:08.130Z,99956.81
2023-05-12T23:35:35.719Z,99952.47
2023-05-12T23:38:03.262Z,99957.59
2023-05-12T23:40:33.338Z,99948.03
2023-05-12T23:43:00.845Z,99949.75
2023-05-12T23:45:28.584Z,99951.38
2023-05-12T23:47:56.135Z,99947.88
2023-05-12T23:50:24.046Z,99946.09
2023-05-12T23:52:53.156Z,99940.03
2023-05-12T23:55:20.742Z,99939.97
2023-05-12T23:57:49.975Z,99943.31
